Time;durP1;ratioP1;P1;durP2;ratioP2;P2;SDS_P1;SDS_P2;PMS_P1;PMS_P2;Temp;Humidity;BMP_temperature;BMP_pressure;BME280_temperature;BME280_humidity;BME280_pressure;Samples;Min_cycle;Max_cycle;Signal;HPM_P1;HPM_P2
2022/01/22 00:01:51;;;;;;;1.70;1.60;;;4.10;42.20;;;;;;6229530;28;20467;-64
2022/01/22 00:04:54;;;;;;;3.30;1.70;;;4.10;42.20;;;;;;6229671;28;20478;-63
2022/01/22 00:07:57;;;;;;;1.43;1.33;;;4.00;42.60;;;;;;6230391;28;20537;-63
2022/01/22 00:11:00;;;;;;;2.00;1.80;;;4.00;42.80;;;;;;6219979;28;20493;-63
2022/01/22 00:17:25;;;;;;;1.80;1.63;;;3.90;43.20;;;;;;6209637;28;20464;-63
2022/01/22 00:20:29;;;;;;;2.03;1.80;;;3.80;43.70;;;;;;6222386;28;20495;-64
2022/01/22 00:23:32;;;;;;;2.10;2.00;;;3.80;44.90;;;;;;6224633;28;20475;-63
2022/01/22 00:26:36;;;;;;;3.30;2.10;;;3.80;44.70;;;;;;6226943;28;20495;-63
2022/01/22 00:29:40;;;;;;;2.43;2.03;;;3.80;44.50;;;;;;6226571;28;20490;-64
2022/01/22 00:32:44;;;;;;;2.20;2.00;;;3.80;44.60;;;;;;6227452;28;20472;-64
2022/01/22 00:35:47;;;;;;;9.50;2.20;;;3.70;44.60;;;;;;6231202;28;20478;-64
2022/01/22 00:38:50;;;;;;;1.90;1.77;;;3.60;44.80;;;;;;6235981;28;20987;-64
2022/01/22 00:41:53;;;;;;;1.80;1.60;;;3.60;45.10;;;;;;6229973;28;20479;-64
2022/01/22 00:44:57;;;;;;;1.63;1.50;;;3.40;44.90;;;;;;6227554;28;20468;-64
2022/01/22 00:48:00;;;;;;;2.10;1.90;;;3.30;45.10;;;;;;6228173;28;20964;-64
2022/01/22 00:51:04;;;;;;;2.40;1.60;;;3.30;45.60;;;;;;6228263;28;20484;-64
2022/01/22 00:54:07;;;;;;;2.27;2.03;;;3.30;46.00;;;;;;6228837;28;20475;-64
2022/01/22 00:57:10;;;;;;;3.40;3.10;;;3.30;46.40;;;;;;6228431;28;20504;-64
2022/01/22 01:00:17;;;;;;;5.10;3.20;;;3.30;46.70;;;;;;6228133;28;20474;-64
2022/01/22 01:03:20;;;;;;;4.07;3.07;;;3.30;46.70;;;;;;6228250;28;20448;-64
2022/01/22 01:06:23;;;;;;;4.73;3.77;;;3.20;46.70;;;;;;6228569;28;20444;-64
2022/01/22 01:09:26;;;;;;;5.30;3.40;;;3.20;46.90;;;;;;6227928;28;20546;-64
2022/01/22 01:12:29;;;;;;;3.97;3.07;;;3.20;47.10;;;;;;6228306;28;20483;-64
2022/01/22 01:15:41;;;;;;;5.37;2.57;;;3.20;47.30;;;;;;6227935;28;20459;-64
2022/01/22 01:32:17;;;;;;;2.67;2.23;;;2.80;48.10;;;;;;6230635;28;20982;-64
2022/01/22 01:35:20;;;;;;;5.70;2.93;;;2.80;48.70;;;;;;6231193;28;20476;-64
2022/01/22 01:38:25;;;;;;;4.20;2.63;;;2.80;48.70;;;;;;6229247;28;20475;-64
2022/01/22 01:41:35;;;;;;;3.43;2.23;;;2.60;48.40;;;;;;6227380;28;20503;-64
2022/01/22 01:44:39;;;;;;;3.33;2.30;;;2.70;48.50;;;;;;6227727;28;20472;-64
2022/01/22 01:47:47;;;;;;;4.70;2.90;;;2.70;49.00;;;;;;6227508;28;20471;-64
2022/01/22 01:50:50;;;;;;;5.67;2.70;;;2.70;48.90;;;;;;6226976;28;20479;-64
2022/01/22 01:53:59;;;;;;;5.80;4.60;;;2.70;48.80;;;;;;6227117;28;20472;-64
2022/01/22 02:00:27;;;;;;;4.13;2.97;;;2.60;49.20;;;;;;6227387;28;20467;-64
2022/01/22 02:03:32;;;;;;;4.40;2.70;;;2.60;49.60;;;;;;6228512;28;20460;-64
2022/01/22 02:06:35;;;;;;;3.97;2.70;;;2.50;49.70;;;;;;6229611;28;20452;-64
2022/01/22 02:09:40;;;;;;;2.87;2.50;;;2.50;49.90;;;;;;6228557;28;20782;-64
2022/01/22 02:23:37;;;;;;;3.83;3.00;;;2.40;50.60;;;;;;6226739;28;20477;-65
2022/01/22 02:26:46;;;;;;;3.77;3.00;;;2.30;50.80;;;;;;6226422;28;20559;-68
2022/01/22 02:29:49;;;;;;;2.93;2.63;;;2.30;50.80;;;;;;6227154;28;20562;-68
2022/01/22 02:33:09;;;;;;;4.20;3.10;;;2.30;51.00;;;;;;6226551;28;20827;-68
2022/01/22 02:36:21;;;;;;;5.03;3.30;;;2.20;51.00;;;;;;6226523;28;20472;-69
2022/01/22 02:39:36;;;;;;;4.10;2.67;;;2.20;51.10;;;;;;6226461;28;20467;-66
2022/01/22 02:42:40;;;;;;;3.50;3.20;;;2.20;51.30;;;;;;6225520;28;20464;-66
2022/01/22 02:45:45;;;;;;;3.50;3.20;;;2.20;51.50;;;;;;6225900;28;20483;-66
2022/01/22 02:48:49;;;;;;;2.93;2.70;;;2.10;51.40;;;;;;6226465;28;20834;-64
2022/01/22 02:51:52;;;;;;;4.53;3.60;;;2.10;51.60;;;;;;6225987;28;20478;-64
2022/01/22 02:54:56;;;;;;;4.40;3.27;;;2.10;51.80;;;;;;6226623;28;20460;-64
2022/01/22 02:58:00;;;;;;;3.30;3.00;;;2.10;51.80;;;;;;6226192;28;20475;-66
2022/01/22 03:01:04;;;;;;;4.27;3.07;;;2.10;51.90;;;;;;6225581;28;20492;-66
2022/01/22 03:04:07;;;;;;;4.60;3.00;;;2.00;52.00;;;;;;6225323;28;21009;-65
2022/01/22 03:07:10;;;;;;;3.97;3.07;;;2.00;52.10;;;;;;6225715;28;20476;-65
2022/01/22 03:10:19;;;;;;;13.30;4.40;;;1.90;52.20;;;;;;6225039;28;20487;-67
2022/01/22 03:16:59;;;;;;;3.47;2.73;;;1.90;52.50;;;;;;6225675;28;20479;-67
2022/01/22 03:20:17;;;;;;;4.97;2.50;;;1.90;52.50;;;;;;6226346;28;20495;-67
2022/01/22 03:29:59;;;;;;;2.17;1.97;;;1.80;52.90;;;;;;6226059;28;20488;-67
2022/01/22 03:33:03;;;;;;;5.17;3.73;;;1.80;53.00;;;;;;6221203;28;20818;-66
2022/01/22 03:36:06;;;;;;;3.53;2.13;;;1.80;53.10;;;;;;6225952;28;20480;-66
2022/01/22 03:39:10;;;;;;;2.60;2.00;;;1.80;53.30;;;;;;6226442;28;20468;-66
2022/01/22 03:42:15;;;;;;;2.53;1.97;;;1.80;53.10;;;;;;6227431;28;20471;-68
2022/01/22 03:45:19;;;;;;;2.27;2.07;;;1.70;53.20;;;;;;6227191;28;20440;-68
2022/01/22 03:48:22;;;;;;;2.70;2.07;;;1.80;53.30;;;;;;6227962;28;20447;-66
2022/01/22 03:51:26;;;;;;;2.20;2.00;;;1.80;53.30;;;;;;6226384;28;20487;-67
2022/01/22 03:54:29;;;;;;;2.53;2.20;;;1.80;53.40;;;;;;6229381;28;20451;-67
2022/01/22 03:57:33;;;;;;;4.07;2.50;;;1.90;53.40;;;;;;6227644;28;20436;-65
2022/01/22 04:00:36;;;;;;;2.67;2.27;;;1.90;53.40;;;;;;6226516;28;20775;-64
2022/01/22 04:03:42;;;;;;;2.43;1.77;;;1.90;53.50;;;;;;6225939;28;20468;-67
2022/01/22 04:10:13;;;;;;;2.10;1.87;;;2.00;53.50;;;;;;6152236;28;20492;-66
2022/01/22 04:13:21;;;;;;;3.10;2.47;;;2.00;53.20;;;;;;6225074;28;20994;-66
2022/01/22 04:16:25;;;;;;;4.97;2.20;;;2.00;53.00;;;;;;6225197;28;20468;-66
2022/01/22 04:26:20;;;;;;;2.20;2.00;;;2.10;53.00;;;;;;6229161;28;20507;-67
2022/01/22 04:29:26;;;;;;;2.73;2.53;;;2.10;53.00;;;;;;6229049;28;20484;-64
2022/01/22 04:32:33;;;;;;;5.33;3.03;;;2.10;53.10;;;;;;6228704;28;20591;-65
2022/01/22 04:35:36;;;;;;;3.00;2.27;;;2.10;53.00;;;;;;6228692;28;20852;-66
2022/01/22 04:38:39;;;;;;;6.40;3.00;;;2.10;53.10;;;;;;6228796;28;20983;-67
2022/01/22 04:41:42;;;;;;;2.47;2.27;;;2.10;53.10;;;;;;6228965;28;20486;-67
2022/01/22 04:44:55;;;;;;;3.97;2.30;;;2.10;53.20;;;;;;6228802;28;20488;-67
2022/01/22 04:48:12;;;;;;;2.87;2.13;;;2.00;53.30;;;;;;6228907;28;20480;-65
2022/01/22 04:57:56;;;;;;;2.50;2.27;;;2.00;54.30;;;;;;6228697;28;20795;-66
2022/01/22 05:01:01;;;;;;;4.50;2.30;;;2.00;54.30;;;;;;6228845;28;20467;-65
2022/01/22 05:04:04;;;;;;;4.00;2.17;;;1.90;54.10;;;;;;6228585;28;20468;-65
2022/01/22 05:07:09;;;;;;;3.90;3.20;;;2.00;54.40;;;;;;6228089;28;20800;-65
2022/01/22 05:10:12;;;;;;;4.30;2.50;;;1.90;54.30;;;;;;6228302;28;20484;-67
2022/01/22 05:13:16;;;;;;;3.10;2.20;;;1.90;54.50;;;;;;6228985;28;20472;-67
2022/01/22 05:16:21;;;;;;;5.13;3.70;;;1.90;54.60;;;;;;6227812;28;20777;-67
2022/01/22 05:19:30;;;;;;;5.10;3.23;;;1.90;54.70;;;;;;6227958;28;20809;-67
2022/01/22 05:22:49;;;;;;;4.00;3.20;;;1.80;54.50;;;;;;6228122;28;20472;-67
2022/01/22 05:25:56;;;;;;;6.17;3.20;;;1.80;54.70;;;;;;6227720;28;20546;-67
2022/01/22 05:29:15;;;;;;;3.00;2.60;;;1.80;54.80;;;;;;6227212;28;20480;-67
2022/01/22 05:32:35;;;;;;;2.83;2.63;;;1.80;54.80;;;;;;6227241;28;20526;-67
2022/01/22 05:39:00;;;;;;;7.20;4.83;;;1.80;55.00;;;;;;6227419;28;20476;-67
2022/01/22 05:42:06;;;;;;;7.40;4.43;;;1.90;55.20;;;;;;6227766;28;20525;-64
2022/01/22 05:45:09;;;;;;;4.57;3.13;;;1.90;55.40;;;;;;6227513;28;20526;-67
2022/01/22 05:48:14;;;;;;;3.50;3.20;;;1.90;55.50;;;;;;6227224;28;20468;-67
2022/01/22 05:51:18;;;;;;;7.03;4.20;;;1.90;55.50;;;;;;6227187;28;20488;-66
2022/01/22 05:54:48;;;;;;;5.93;5.33;;;1.90;55.50;;;;;;6227157;28;20456;-64
2022/01/22 06:01:12;;;;;;;6.40;5.80;;;2.00;55.60;;;;;;6227652;28;20477;-64
2022/01/22 06:04:17;;;;;;;4.00;2.90;;;2.00;55.70;;;;;;6227490;28;20598;-64
2022/01/22 06:07:21;;;;;;;4.37;3.97;;;1.90;55.70;;;;;;6227209;28;20479;-65
2022/01/22 06:10:28;;;;;;;4.57;3.47;;;1.90;55.90;;;;;;6226368;28;20480;-66
2022/01/22 06:13:43;;;;;;;4.40;4.00;;;1.80;55.90;;;;;;6227339;28;20495;-66
2022/01/22 06:16:46;;;;;;;5.97;4.10;;;1.80;56.30;;;;;;6226756;28;20480;-65
2022/01/22 06:19:51;;;;;;;3.00;2.67;;;1.80;56.70;;;;;;6226767;28;20529;-64
2022/01/22 06:22:54;;;;;;;8.33;5.73;;;1.80;56.70;;;;;;6226195;28;20840;-63
2022/01/22 06:26:00;;;;;;;10.67;6.33;;;1.80;56.60;;;;;;6227223;28;20525;-63
2022/01/22 06:29:04;;;;;;;10.10;5.13;;;1.80;56.90;;;;;;6227691;28;20486;-65
2022/01/22 06:32:08;;;;;;;8.97;5.87;;;1.90;57.10;;;;;;6227482;28;20476;-67
2022/01/22 06:35:13;;;;;;;4.80;3.23;;;1.80;57.10;;;;;;6227994;28;20483;-67
2022/01/22 06:38:17;;;;;;;5.40;3.63;;;1.90;57.50;;;;;;6229214;28;20480;-67
2022/01/22 06:44:41;;;;;;;5.50;3.67;;;1.90;57.30;;;;;;6221309;28;20472;-66
2022/01/22 06:47:44;;;;;;;4.07;3.37;;;1.90;57.20;;;;;;6226635;28;20492;-65
2022/01/22 06:50:48;;;;;;;3.40;3.10;;;1.90;57.60;;;;;;6226734;28;20512;-64
2022/01/22 06:53:53;;;;;;;4.50;3.53;;;1.90;57.60;;;;;;6227069;28;20472;-64
2022/01/22 06:56:56;;;;;;;7.60;3.10;;;2.00;57.70;;;;;;6226322;28;20467;-64
2022/01/22 06:59:59;;;;;;;5.80;4.07;;;2.10;57.70;;;;;;6225829;28;20483;-64
2022/01/22 07:03:03;;;;;;;5.43;3.80;;;2.10;57.70;;;;;;6224162;28;21010;-64
2022/01/22 07:06:07;;;;;;;5.30;4.80;;;2.10;58.10;;;;;;6225871;28;20491;-64
2022/01/22 07:09:11;;;;;;;7.90;4.60;;;2.00;58.30;;;;;;6227043;28;20476;-64
2022/01/22 07:12:14;;;;;;;10.87;5.70;;;2.00;58.40;;;;;;6227151;28;20590;-67
2022/01/22 07:15:19;;;;;;;7.40;4.87;;;2.10;58.40;;;;;;6228020;28;20922;-68
2022/01/22 07:18:23;;;;;;;5.70;4.20;;;2.10;58.40;;;;;;6228181;28;20788;-68
2022/01/22 07:21:29;;;;;;;11.70;4.87;;;2.10;57.70;;;;;;6227872;28;20463;-64
2022/01/22 07:24:37;;;;;;;9.33;5.17;;;2.10;58.00;;;;;;6227949;28;20443;-68
2022/01/22 07:27:40;;;;;;;6.70;4.70;;;2.10;58.20;;;;;;6226437;28;21003;-67
2022/01/22 07:30:44;;;;;;;5.80;4.33;;;2.10;58.30;;;;;;6226381;28;20841;-67
2022/01/22 07:33:48;;;;;;;8.97;5.97;;;2.20;58.30;;;;;;6227388;28;20920;-67
2022/01/22 07:36:52;;;;;;;7.47;5.60;;;2.30;58.10;;;;;;6226544;28;20920;-67
2022/01/22 07:39:55;;;;;;;7.03;5.50;;;2.30;57.90;;;;;;6226634;28;20468;-67
2022/01/22 07:42:59;;;;;;;8.33;6.17;;;2.30;57.80;;;;;;6225179;28;20464;-66
2022/01/22 07:46:03;;;;;;;6.90;5.60;;;2.30;57.60;;;;;;6225437;28;20467;-67
2022/01/22 07:49:07;;;;;;;9.30;6.33;;;2.30;57.90;;;;;;6225476;28;20476;-66
2022/01/22 07:52:11;;;;;;;6.43;5.63;;;2.30;57.90;;;;;;6225477;28;20542;-66
2022/01/22 07:55:19;;;;;;;8.80;6.00;;;2.30;57.50;;;;;;6228023;28;20591;-66
2022/01/22 07:58:22;;;;;;;6.57;5.27;;;2.30;57.70;;;;;;6230794;28;20495;-65
2022/01/22 08:01:25;;;;;;;6.87;5.77;;;2.30;57.50;;;;;;6230838;28;20476;-66
2022/01/22 08:04:29;;;;;;;8.93;5.23;;;2.40;57.60;;;;;;6229872;28;20459;-66
2022/01/22 08:07:34;;;;;;;6.73;5.93;;;2.40;57.30;;;;;;6229662;28;20497;-66
2022/01/22 08:10:37;;;;;;;5.60;4.80;;;2.40;57.10;;;;;;6229332;28;20814;-66
2022/01/22 08:13:40;;;;;;;5.70;4.87;;;2.30;57.20;;;;;;6229790;28;20971;-66
2022/01/22 08:16:46;;;;;;;7.73;5.23;;;2.20;57.60;;;;;;6229790;28;20537;-67
2022/01/22 08:19:49;;;;;;;6.93;5.83;;;2.20;57.60;;;;;;6230545;28;20810;-67
2022/01/22 08:22:55;;;;;;;5.90;4.30;;;1.90;58.00;;;;;;6233020;28;20480;-66
2022/01/22 08:25:58;;;;;;;6.50;4.70;;;1.90;58.80;;;;;;6229495;28;20958;-66
2022/01/22 08:29:03;;;;;;;5.63;4.50;;;2.00;59.10;;;;;;6230116;28;20475;-66
2022/01/22 08:32:23;;;;;;;6.17;4.13;;;2.10;59.30;;;;;;6229433;28;20971;-66
2022/01/22 08:38:49;;;;;;;6.17;4.17;;;2.60;59.30;;;;;;6229466;28;20787;-66
2022/01/22 08:41:52;;;;;;;6.57;4.70;;;2.80;59.40;;;;;;6229610;28;20475;-66
2022/01/22 08:44:55;;;;;;;10.73;6.70;;;2.90;59.80;;;;;;6228990;28;20488;-67
2022/01/22 08:47:58;;;;;;;10.07;6.07;;;2.90;61.40;;;;;;6228928;28;20483;-67
2022/01/22 08:51:01;;;;;;;10.53;5.90;;;3.00;62.00;;;;;;6228532;28;20483;-66
2022/01/22 08:54:22;;;;;;;9.13;4.07;;;3.10;62.20;;;;;;6227848;28;20531;-66
2022/01/22 08:57:26;;;;;;;20.50;11.83;;;3.20;63.80;;;;;;6228733;28;20461;-66
2022/01/22 09:00:29;;;;;;;11.67;7.40;;;3.40;63.60;;;;;;6228679;28;20472;-66
2022/01/22 09:03:32;;;;;;;6.87;3.93;;;3.50;64.00;;;;;;6228223;28;20458;-67
2022/01/22 09:06:35;;;;;;;55.27;21.63;;;3.80;67.30;;;;;;6227372;28;20450;-67
2022/01/22 09:09:40;;;;;;;4.47;2.90;;;4.00;67.90;;;;;;6227986;28;20491;-67
2022/01/22 09:12:43;;;;;;;0.70;0.70;;;4.10;70.60;;;;;;6228336;28;20927;-68
2022/01/22 09:15:46;;;;;;;2.47;1.47;;;4.60;74.10;;;;;;6227905;28;20464;-67
2022/01/22 09:18:50;;;;;;;2.30;2.20;;;5.00;74.40;;;;;;6228728;28;20471;-67
2022/01/22 09:21:54;;;;;;;1.53;0.80;;;5.30;73.80;;;;;;6227562;28;20797;-67
2022/01/22 09:24:58;;;;;;;0.80;0.80;;;5.60;73.00;;;;;;6228320;28;20479;-67
2022/01/22 09:28:01;;;;;;;0.83;0.70;;;5.70;71.70;;;;;;6228016;28;20976;-67
2022/01/22 09:31:04;;;;;;;1.67;0.60;;;5.90;71.50;;;;;;6227858;28;20479;-68
2022/01/22 09:34:07;;;;;;;1.67;0.67;;;6.10;70.60;;;;;;6227840;28;20808;-67
2022/01/22 09:37:11;;;;;;;0.90;0.70;;;6.30;69.50;;;;;;6227258;28;20508;-67
2022/01/22 09:40:15;;;;;;;1.03;0.60;;;6.40;69.40;;;;;;6226571;28;20491;-67
2022/01/22 09:43:19;;;;;;;0.63;0.60;;;6.50;69.20;;;;;;6227859;28;20472;-66
2022/01/22 09:46:23;;;;;;;2.57;0.80;;;6.60;68.20;;;;;;6226796;28;20478;-66
2022/01/22 09:49:26;;;;;;;0.87;0.80;;;6.70;67.90;;;;;;6227143;28;20796;-66
2022/01/22 09:52:29;;;;;;;0.50;0.50;;;6.80;67.80;;;;;;6227037;28;20468;-66
2022/01/22 09:55:34;;;;;;;0.83;0.83;;;6.90;67.80;;;;;;6218429;28;20475;-66
2022/01/22 09:58:37;;;;;;;1.53;0.60;;;7.10;66.70;;;;;;6227156;28;20472;-66
2022/01/22 10:01:40;;;;;;;1.23;0.83;;;7.20;65.70;;;;;;6226577;28;20833;-66
2022/01/22 10:04:48;;;;;;;0.90;0.70;;;7.20;65.10;;;;;;6226798;28;20995;-66
2022/01/22 10:07:53;;;;;;;0.80;0.70;;;7.30;64.60;;;;;;6227041;28;20472;-66
2022/01/22 10:10:59;;;;;;;0.80;0.60;;;7.30;64.20;;;;;;6226574;28;20483;-66
2022/01/22 10:14:03;;;;;;;0.50;0.50;;;7.40;63.10;;;;;;6226571;28;20484;-66
2022/01/22 10:17:07;;;;;;;0.70;0.70;;;7.50;62.90;;;;;;6226056;28;20475;-66
2022/01/22 10:20:29;;;;;;;0.70;0.70;;;7.70;61.80;;;;;;6226233;28;20488;-66
2022/01/22 10:23:38;;;;;;;0.80;0.80;;;7.90;60.50;;;;;;6213882;28;20473;-64
2022/01/22 10:26:43;;;;;;;1.23;0.60;;;8.10;59.60;;;;;;6194333;28;20557;-65
2022/01/22 10:29:52;;;;;;;3.33;0.80;;;8.20;59.10;;;;;;6187548;28;20484;-65
2022/01/22 10:33:02;;;;;;;1.30;0.63;;;8.40;58.30;;;;;;6186978;28;20476;-64
2022/01/22 10:36:15;;;;;;;1.57;0.57;;;8.90;57.30;;;;;;6193430;28;20488;-64
2022/01/22 10:39:24;;;;;;;0.70;0.47;;;10.40;54.40;;;;;;6201681;28;20480;-65
2022/01/22 10:42:29;;;;;;;0.60;0.60;;;12.90;50.70;;;;;;6177057;28;20469;-64
2022/01/22 10:45:32;;;;;;;0.70;0.40;;;15.50;43.60;;;;;;6177784;28;20434;-65
2022/01/22 10:48:38;;;;;;;0.73;0.50;;;18.50;38.80;;;;;;6182155;28;20445;-66
2022/01/22 10:51:53;;;;;;;1.03;0.47;;;19.80;34.00;;;;;;6201542;28;20464;-64
2022/01/22 10:55:02;;;;;;;1.10;0.30;;;18.10;34.00;;;;;;6201418;28;20473;-65
2022/01/22 10:58:08;;;;;;;1.70;0.40;;;16.30;35.50;;;;;;6201398;28;20473;-65
2022/01/22 11:01:13;;;;;;;0.50;0.40;;;14.60;38.00;;;;;;6201269;28;20815;-67
2022/01/22 11:04:19;;;;;;;1.20;0.50;;;13.40;39.60;;;;;;6201228;28;20488;-64
2022/01/22 11:07:23;;;;;;;0.63;0.40;;;13.00;41.00;;;;;;6182073;28;20477;-63
2022/01/22 11:10:34;;;;;;;0.53;0.40;;;12.70;41.40;;;;;;6184348;28;20547;-65
2022/01/22 11:13:39;;;;;;;1.37;0.50;;;13.00;42.00;;;;;;6200703;28;20488;-65
2022/01/22 11:16:44;;;;;;;1.60;0.70;;;13.50;40.10;;;;;;6200974;28;20483;-64
2022/01/22 11:19:52;;;;;;;1.07;0.60;;;14.30;40.20;;;;;;6200942;28;20484;-65
2022/01/22 11:22:56;;;;;;;0.60;0.40;;;14.80;39.00;;;;;;6200823;28;20464;-64
2022/01/22 11:25:59;;;;;;;1.43;0.67;;;17.00;36.90;;;;;;6200497;28;20468;-64
2022/01/22 11:29:04;;;;;;;1.93;0.40;;;18.60;33.70;;;;;;6201449;28;20476;-64
2022/01/22 11:32:12;;;;;;;1.80;0.23;;;20.40;31.00;;;;;;6214877;28;20627;-65
2022/01/22 11:35:22;;;;;;;3.10;0.77;;;21.90;28.90;;;;;;6230342;28;20233;-66
2022/01/22 11:38:30;;;;;;;0.80;0.40;;;23.00;28.00;;;;;;6230259;28;20234;-66
2022/01/22 11:41:33;;;;;;;1.67;0.40;;;24.80;26.40;;;;;;6240688;28;20236;-65
2022/01/22 11:44:47;;;;;;;1.63;0.60;;;24.30;25.10;;;;;;6229342;28;20228;-65
2022/01/22 11:48:12;;;;;;;0.50;0.30;;;22.10;25.50;;;;;;6227068;28;20229;-64
2022/01/22 11:51:26;;;;;;;0.90;0.40;;;19.70;28.20;;;;;;6227767;28;20229;-67
2022/01/22 11:54:50;;;;;;;0.90;0.70;;;19.40;28.10;;;;;;6229337;28;20221;-63
2022/01/22 11:58:07;;;;;;;0.57;0.20;;;17.70;29.20;;;;;;6228977;28;20292;-64
2022/01/22 12:01:11;;;;;;;1.17;0.40;;;16.20;30.90;;;;;;6214871;28;20498;-65
2022/01/22 12:04:15;;;;;;;0.77;0.40;;;15.60;31.60;;;;;;6228557;28;20573;-65
2022/01/22 12:07:21;;;;;;;2.57;0.40;;;14.80;33.10;;;;;;6228649;28;20468;-64
2022/01/22 12:10:38;;;;;;;0.40;0.30;;;15.40;34.20;;;;;;6225725;28;20483;-65
2022/01/22 12:17:17;;;;;;;0.60;0.30;;;18.70;28.70;;;;;;6218396;28;20467;-65
2022/01/22 12:21:30;;;;;;;0.40;0.20;;;18.30;28.60;;;;;;6229787;28;20472;-65
2022/01/22 12:24:10;;;;;;;0.50;0.30;;;18.90;28.60;;;;;;6228455;28;20229;-65
2022/01/22 12:27:43;;;;;;;1.70;0.90;;;19.90;27.70;;;;;;6215950;28;20548;-65
2022/01/22 12:30:51;;;;;;;0.57;0.50;;;20.70;26.70;;;;;;6204225;28;20654;-65
2022/01/22 12:33:56;;;;;;;0.60;0.40;;;22.40;25.50;;;;;;6205047;28;20245;-66
2022/01/22 12:37:18;;;;;;;1.63;0.57;;;25.00;24.30;;;;;;6211506;28;20236;-66
2022/01/22 12:40:35;;;;;;;0.70;0.20;;;26.90;21.70;;;;;;6211898;28;20240;-64
2022/01/22 12:43:38;;;;;;;0.53;0.37;;;26.00;21.20;;;;;;6207506;28;20228;-64
2022/01/22 12:46:44;;;;;;;1.27;0.40;;;25.20;22.00;;;;;;6205824;28;20235;-66
2022/01/22 12:49:59;;;;;;;2.20;0.50;;;25.80;22.60;;;;;;6209737;28;20241;-65
2022/01/22 12:53:14;;;;;;;0.80;0.43;;;27.30;20.30;;;;;;6210317;28;20238;-65
2022/01/22 12:56:49;;;;;;;0.83;0.40;;;26.30;20.50;;;;;;6204618;28;20459;-66
2022/01/22 12:59:54;;;;;;;0.90;0.30;;;26.80;20.30;;;;;;6204218;28;20248;-65
2022/01/22 13:03:02;;;;;;;0.77;0.40;;;26.90;19.80;;;;;;6205397;28;20232;-66
2022/01/22 13:06:07;;;;;;;0.80;0.30;;;27.40;19.60;;;;;;6207101;28;20577;-66
2022/01/22 13:09:11;;;;;;;0.60;0.30;;;29.30;19.00;;;;;;6203634;28;20255;-66
2022/01/22 13:12:15;;;;;;;1.77;0.40;;;29.90;18.10;;;;;;6224657;28;20684;-66
2022/01/22 13:15:19;;;;;;;0.60;0.23;;;28.70;17.80;;;;;;6227853;28;20232;-67
2022/01/22 13:18:22;;;;;;;0.60;0.30;;;29.00;18.20;;;;;;6227053;28;20216;-67
2022/01/22 13:21:29;;;;;;;1.27;0.33;;;29.60;17.40;;;;;;6227180;28;20676;-67
2022/01/22 13:24:32;;;;;;;1.10;0.33;;;28.60;17.60;;;;;;6227871;28;20190;-67
2022/01/22 13:27:36;;;;;;;0.60;0.30;;;27.00;18.50;;;;;;6227712;28;20219;-65
2022/01/22 13:30:48;;;;;;;0.73;0.40;;;27.10;19.10;;;;;;6226904;28;20595;-67
2022/01/22 13:33:59;;;;;;;0.73;0.40;;;28.70;18.60;;;;;;6227825;28;20236;-65
2022/01/22 13:37:52;;;;;;;0.70;0.40;;;29.80;17.90;;;;;;6231279;28;20235;-67
2022/01/22 13:45:01;;;;;;;0.70;0.30;;;29.30;17.30;;;;;;6242447;28;20269;-67
2022/01/22 13:47:54;;;;;;;0.80;0.40;;;27.60;18.40;;;;;;6251871;28;20230;-65
2022/01/22 13:51:16;;;;;;;1.73;0.80;;;25.00;19.00;;;;;;6252460;28;20236;-66
2022/01/22 13:54:28;;;;;;;2.20;0.80;;;22.80;20.50;;;;;;6250898;28;20573;-64
2022/01/22 13:57:36;;;;;;;1.23;0.50;;;20.70;21.70;;;;;;6251855;28;20223;-64
2022/01/22 14:00:40;;;;;;;0.70;0.40;;;18.30;23.70;;;;;;6251229;28;20231;-63
2022/01/22 14:04:07;;;;;;;0.73;0.40;;;18.00;24.70;;;;;;6250946;28;20625;-64
2022/01/22 14:07:26;;;;;;;1.73;0.40;;;17.70;25.20;;;;;;6246812;28;20239;-64
2022/01/22 14:10:34;;;;;;;0.60;0.30;;;18.30;23.90;;;;;;6251536;28;20241;-64
2022/01/22 14:13:39;;;;;;;2.00;1.10;;;16.80;25.60;;;;;;6251644;28;20487;-67
2022/01/22 14:16:46;;;;;;;1.27;0.90;;;15.40;27.70;;;;;;6250149;28;20803;-64
2022/01/22 14:20:03;;;;;;;3.17;1.20;;;14.80;28.80;;;;;;6249100;28;20800;-64
2022/01/22 14:23:09;;;;;;;1.00;0.70;;;14.30;30.30;;;;;;6250208;28;20493;-65
2022/01/22 14:26:16;;;;;;;0.70;0.40;;;13.70;30.20;;;;;;6250350;28;20474;-65
2022/01/22 14:29:19;;;;;;;2.80;0.70;;;13.10;31.00;;;;;;6250049;28;20514;-65
2022/01/22 14:32:23;;;;;;;0.67;0.67;;;12.30;30.50;;;;;;6243670;28;20495;-64
2022/01/22 14:35:26;;;;;;;0.93;0.67;;;11.70;32.00;;;;;;6226648;28;20479;-65
2022/01/22 14:38:41;;;;;;;1.67;0.90;;;11.40;32.20;;;;;;6226693;28;20534;-64
2022/01/22 14:45:14;;;;;;;1.07;0.70;;;10.40;32.20;;;;;;6250891;28;20931;-64
2022/01/22 14:48:18;;;;;;;0.50;0.50;;;10.20;33.60;;;;;;6250610;28;20524;-63
2022/01/22 14:51:22;;;;;;;0.50;0.50;;;9.90;35.10;;;;;;6249736;28;20466;-64
2022/01/22 14:54:27;;;;;;;0.67;0.67;;;9.60;34.80;;;;;;6249607;28;20483;-64
2022/01/22 14:57:38;;;;;;;0.67;0.63;;;9.60;36.70;;;;;;6250052;28;20432;-64
2022/01/22 15:00:41;;;;;;;0.60;0.60;;;9.70;35.50;;;;;;6250159;28;20463;-64
2022/01/22 15:03:44;;;;;;;0.73;0.70;;;9.70;35.20;;;;;;6249358;28;20592;-64
2022/01/22 15:06:49;;;;;;;0.80;0.80;;;9.70;35.20;;;;;;6250684;28;20470;-64
2022/01/22 15:09:53;;;;;;;2.10;0.83;;;9.60;36.90;;;;;;6245191;28;20475;-64
2022/01/22 15:12:57;;;;;;;1.00;0.73;;;9.60;36.40;;;;;;6250199;28;20959;-64
2022/01/22 15:16:08;;;;;;;0.80;0.80;;;9.60;36.90;;;;;;6249923;28;20579;-64
2022/01/22 15:19:15;;;;;;;3.13;0.80;;;9.40;36.10;;;;;;6251093;28;20471;-64
2022/01/22 15:22:19;;;;;;;1.23;0.80;;;9.30;36.40;;;;;;6251529;28;20574;-64
2022/01/22 15:25:22;;;;;;;1.03;0.90;;;9.30;36.40;;;;;;6250620;28;20474;-64
2022/01/22 15:28:32;;;;;;;0.60;0.60;;;9.30;36.80;;;;;;6249505;28;20474;-64
2022/01/22 15:31:40;;;;;;;0.90;0.90;;;9.30;37.60;;;;;;6249889;28;20470;-64
2022/01/22 15:35:06;;;;;;;1.00;0.90;;;9.30;36.50;;;;;;6200238;28;21016;-64
2022/01/22 15:38:09;;;;;;;2.00;1.63;;;9.20;36.00;;;;;;6200463;28;20782;-65
2022/01/22 15:41:12;;;;;;;2.03;1.67;;;9.20;36.00;;;;;;6233867;28;20479;-64
2022/01/22 15:44:17;;;;;;;1.17;1.07;;;9.10;36.00;;;;;;6249668;28;20470;-64
2022/01/22 15:47:20;;;;;;;4.57;3.27;;;9.00;36.30;;;;;;6249134;28;20479;-64
2022/01/22 15:50:24;;;;;;;3.20;2.40;;;8.90;36.40;;;;;;6249512;28;20470;-64
2022/01/22 15:53:44;;;;;;;7.40;4.20;;;8.90;36.90;;;;;;6249410;28;20802;-64
2022/01/22 15:56:48;;;;;;;4.07;2.47;;;8.80;37.50;;;;;;6248963;28;21001;-64
2022/01/22 15:59:53;;;;;;;5.47;4.77;;;8.80;37.40;;;;;;6248992;28;20813;-64
2022/01/22 16:02:57;;;;;;;1.37;0.70;;;8.80;37.60;;;;;;6249145;28;20471;-65
2022/01/22 16:06:07;;;;;;;1.23;0.87;;;8.80;38.30;;;;;;6249096;28;20478;-64
2022/01/22 16:09:13;;;;;;;14.50;9.00;;;8.80;38.30;;;;;;6249564;28;20481;-64
2022/01/22 16:12:36;;;;;;;6.20;3.87;;;8.80;38.60;;;;;;6249118;28;20928;-64
2022/01/22 16:15:41;;;;;;;6.10;5.50;;;8.80;38.30;;;;;;6231066;28;20492;-64
2022/01/22 16:18:44;;;;;;;2.80;2.40;;;8.70;38.40;;;;;;6229363;28;20468;-64
2022/01/22 16:21:47;;;;;;;1.60;1.50;;;8.60;39.00;;;;;;6229560;28;20472;-64
2022/01/22 16:24:51;;;;;;;4.77;4.27;;;8.60;39.60;;;;;;6228681;28;20464;-64
2022/01/22 16:27:54;;;;;;;7.47;5.50;;;8.50;40.00;;;;;;6228480;28;20521;-66
2022/01/22 16:30:58;;;;;;;4.20;3.27;;;8.40;40.50;;;;;;6229244;28;20463;-64
2022/01/22 16:34:03;;;;;;;5.93;4.00;;;8.50;41.00;;;;;;6229108;28;20472;-64
2022/01/22 16:37:06;;;;;;;1.93;1.70;;;8.40;41.20;;;;;;6229150;28;20464;-64
2022/01/22 16:40:16;;;;;;;1.80;1.70;;;8.30;41.40;;;;;;6231048;28;20442;-65
2022/01/22 16:43:28;;;;;;;2.60;1.20;;;8.30;41.70;;;;;;6231729;28;20479;-65
2022/01/22 16:46:45;;;;;;;1.87;1.77;;;8.30;41.90;;;;;;6228851;28;20472;-65
2022/01/22 16:56:36;;;;;;;3.30;1.93;;;8.10;43.30;;;;;;6227890;28;20480;-66
2022/01/22 16:59:41;;;;;;;5.80;1.90;;;8.00;43.40;;;;;;6228647;28;20483;-66
2022/01/22 17:02:50;;;;;;;2.43;1.90;;;7.90;43.60;;;;;;6224756;28;20809;-66
2022/01/22 17:05:54;;;;;;;17.47;10.37;;;7.80;43.60;;;;;;6227782;28;20464;-66
2022/01/22 17:09:11;;;;;;;5.70;4.73;;;7.80;44.00;;;;;;6227894;28;20995;-66
2022/01/22 17:15:35;;;;;;;4.77;4.07;;;7.60;44.20;;;;;;6227553;28;20519;-66
2022/01/22 17:18:40;;;;;;;6.07;4.57;;;7.60;44.50;;;;;;6223472;28;20448;-67
2022/01/22 17:21:43;;;;;;;6.80;4.67;;;7.50;45.00;;;;;;6227306;28;20858;-66
2022/01/22 17:24:46;;;;;;;7.67;4.23;;;7.10;53.50;;;;;;6227844;28;20475;-66
2022/01/22 17:27:50;;;;;;;11.93;7.07;;;6.30;60.40;;;;;;6227041;28;20502;-65
2022/01/22 17:30:53;;;;;;;8.43;4.73;;;5.90;67.00;;;;;;6229066;28;20472;-65
2022/01/22 17:33:58;;;;;;;25.10;11.90;;;5.60;73.00;;;;;;6210992;28;20539;-65
2022/01/22 17:37:01;;;;;;;35.90;16.53;;;5.40;77.10;;;;;;6206489;28;20464;-65
2022/01/22 17:40:05;;;;;;;79.27;33.27;;;5.20;81.10;;;;;;6203303;28;20969;-66
2022/01/22 17:43:10;;;;;;;14.73;8.07;;;5.30;82.60;;;;;;6205501;28;20472;-66
2022/01/22 17:46:13;;;;;;;6.17;4.67;;;5.30;83.50;;;;;;6205000;28;20480;-65
2022/01/22 17:49:18;;;;;;;25.17;9.90;;;5.50;83.60;;;;;;6204214;28;20480;-66
2022/01/22 17:52:21;;;;;;;14.20;8.70;;;5.50;84.00;;;;;;6203003;28;20964;-65